createdAt,value
2023-02-02T00:01:51.174Z,41.90
2023-02-02T00:04:21.168Z,43.70
2023-02-02T00:06:49.904Z,49.70
2023-02-02T00:09:19.340Z,53.70
2023-02-02T00:11:48.694Z,51.60
2023-02-02T00:14:17.538Z,60.20
2023-02-02T00:16:46.682Z,55.30
2023-02-02T00:19:23.306Z,63.40
2023-02-02T00:21:52.737Z,53.30
2023-02-02T00:24:22.005Z,49.30
2023-02-02T00:26:51.563Z,49.20
2023-02-02T00:29:23.871Z,50.20
2023-02-02T00:31:52.583Z,45.00
2023-02-02T00:34:21.195Z,44.50
2023-02-02T00:36:50.055Z,39.60
2023-02-02T00:39:23.628Z,43.70
2023-02-02T00:41:52.202Z,43.40
2023-02-02T00:44:41.458Z,44.60
2023-02-02T00:47:10.098Z,47.30
2023-02-02T00:49:38.823Z,45.30
2023-02-02T00:52:08.075Z,41.50
2023-02-02T00:54:38.034Z,51.60
2023-02-02T00:57:06.342Z,38.40
2023-02-02T00:59:35.731Z,30.90
2023-02-02T01:02:07.442Z,37.60
2023-02-02T01:04:35.764Z,57.40
2023-02-02T01:07:03.983Z,71.80
2023-02-02T01:09:32.968Z,63.10
2023-02-02T01:12:02.717Z,80.70
2023-02-02T01:14:31.092Z,68.80
2023-02-02T01:16:59.179Z,61.90
2023-02-02T01:19:28.163Z,79.20
2023-02-02T01:21:56.641Z,84.60
2023-02-02T01:24:25.284Z,51.80
2023-02-02T01:26:53.474Z,54.40
2023-02-02T01:29:21.717Z,75.60
2023-02-02T01:31:50.103Z,55.00
2023-02-02T01:34:18.385Z,58.60
2023-02-02T01:36:47.926Z,47.60
2023-02-02T01:39:16.589Z,51.70
2023-02-02T01:41:45.610Z,43.00
2023-02-02T01:44:33.927Z,40.20
2023-02-02T01:47:03.509Z,52.10
2023-02-02T01:49:32.704Z,42.50
2023-02-02T01:52:00.976Z,44.70
2023-02-02T01:54:31.122Z,46.80
2023-02-02T01:57:05.604Z,35.80
2023-02-02T01:59:34.353Z,40.00
2023-02-02T02:02:03.981Z,39.90
2023-02-02T02:04:32.933Z,36.60
2023-02-02T02:07:02.136Z,39.20
2023-02-02T02:09:32.172Z,40.40
2023-02-02T02:12:13.517Z,32.30
2023-02-02T02:15:01.834Z,42.10
2023-02-02T02:17:52.567Z,53.90
2023-02-02T02:20:51.409Z,47.50
2023-02-02T02:23:42.215Z,43.40
2023-02-02T02:26:35.692Z,44.80
2023-02-02T02:29:18.726Z,47.10
2023-02-02T02:32:06.819Z,46.50
2023-02-02T02:34:55.879Z,50.40
2023-02-02T02:37:32.303Z,57.90
2023-02-02T02:40:09.059Z,55.60
2023-02-02T02:42:38.788Z,62.30
2023-02-02T02:45:08.161Z,50.20
2023-02-02T02:47:37.630Z,57.90
2023-02-02T02:50:06.758Z,51.50
2023-02-02T02:52:35.996Z,54.10
2023-02-02T02:55:05.563Z,62.30
2023-02-02T02:57:49.642Z,82.60
2023-02-02T03:00:37.609Z,87.70
2023-02-02T03:03:21.445Z,84.40
2023-02-02T03:05:52.610Z,78.80
2023-02-02T03:08:22.171Z,84.40
2023-02-02T03:10:51.254Z,85.20
2023-02-02T03:13:19.932Z,83.30
2023-02-02T03:15:48.591Z,72.30
2023-02-02T03:18:17.588Z,69.60
2023-02-02T03:20:46.653Z,65.30
2023-02-02T03:23:15.160Z,53.00
2023-02-02T03:25:43.761Z,56.20
2023-02-02T03:28:12.402Z,58.30
2023-02-02T03:30:40.640Z,52.00
2023-02-02T03:33:08.754Z,47.30
2023-02-02T03:35:37.301Z,50.00
2023-02-02T03:38:05.651Z,67.80
2023-02-02T03:40:34.521Z,57.30
2023-02-02T03:43:03.119Z,53.60
2023-02-02T03:45:32.461Z,63.80
2023-02-02T03:48:01.224Z,58.70
2023-02-02T03:50:29.706Z,58.40
2023-02-02T03:52:57.946Z,50.40
2023-02-02T03:55:26.459Z,53.10
2023-02-02T03:57:55.750Z,56.00
2023-02-02T04:00:23.940Z,50.90
2023-02-02T04:02:53.928Z,40.40
2023-02-02T04:05:23.894Z,42.80
2023-02-02T04:07:52.938Z,35.10
2023-02-02T04:10:21.524Z,31.90
2023-02-02T04:12:51.155Z,36.90
2023-02-02T04:15:19.843Z,31.60
2023-02-02T04:17:48.762Z,32.70
2023-02-02T04:20:17.358Z,29.80
2023-02-02T04:22:45.474Z,29.30
2023-02-02T04:25:13.607Z,31.50
2023-02-02T04:27:43.016Z,31.20
2023-02-02T04:30:11.802Z,37.10
2023-02-02T04:32:40.163Z,37.90
2023-02-02T04:35:08.646Z,32.80
2023-02-02T04:37:36.768Z,35.60
2023-02-02T04:40:05.366Z,57.70
2023-02-02T04:42:35.772Z,94.50
2023-02-02T04:45:08.241Z,112.30
2023-02-02T04:47:37.772Z,80.70
2023-02-02T04:50:06.162Z,71.60
2023-02-02T04:52:35.343Z,72.50
2023-02-02T04:55:05.049Z,66.40
2023-02-02T04:57:33.839Z,68.40
2023-02-02T05:00:02.022Z,62.80
2023-02-02T05:02:30.479Z,64.20
2023-02-02T05:04:58.771Z,48.80
2023-02-02T05:07:26.953Z,49.20
2023-02-02T05:09:57.992Z,38.20
2023-02-02T05:12:30.097Z,41.50
2023-02-02T05:15:01.299Z,43.70
2023-02-02T05:17:29.758Z,43.80
2023-02-02T05:19:58.379Z,47.40
2023-02-02T05:22:27.224Z,38.80
2023-02-02T05:24:55.651Z,44.00
2023-02-02T05:27:24.037Z,54.20
2023-02-02T05:29:53.147Z,71.40
2023-02-02T05:32:22.053Z,57.70
2023-02-02T05:34:52.219Z,59.80
2023-02-02T05:37:20.441Z,75.00
2023-02-02T05:39:49.962Z,67.20
2023-02-02T05:42:18.231Z,66.60
2023-02-02T05:44:46.477Z,61.40
2023-02-02T05:47:16.302Z,55.20
2023-02-02T05:49:44.633Z,62.70
2023-02-02T05:52:17.907Z,63.60
2023-02-02T05:54:46.842Z,61.70
2023-02-02T05:57:15.246Z,52.20
2023-02-02T05:59:47.493Z,52.40
2023-02-02T06:02:15.634Z,55.80
2023-02-02T06:04:43.661Z,47.40
2023-02-02T06:07:12.639Z,52.60
2023-02-02T06:09:40.908Z,48.70
2023-02-02T06:12:10.003Z,45.50
2023-02-02T06:14:38.648Z,48.20
2023-02-02T06:17:07.082Z,42.70
2023-02-02T06:19:35.712Z,48.00
2023-02-02T06:22:04.047Z,49.90
2023-02-02T06:24:32.725Z,50.20
2023-02-02T06:27:01.058Z,51.90
2023-02-02T06:29:30.370Z,53.90
2023-02-02T06:31:58.973Z,51.00
2023-02-02T06:34:27.140Z,47.50
2023-02-02T06:36:55.927Z,45.30
2023-02-02T06:39:24.317Z,44.60
2023-02-02T06:41:52.781Z,40.10
2023-02-02T06:44:21.164Z,33.90
2023-02-02T06:46:49.594Z,39.90
2023-02-02T06:49:17.918Z,39.50
2023-02-02T06:51:49.523Z,34.50
2023-02-02T06:54:17.788Z,40.20
2023-02-02T06:56:46.008Z,48.70
2023-02-02T06:59:14.241Z,38.30
2023-02-02T07:01:42.695Z,37.20
2023-02-02T07:04:11.075Z,35.70
2023-02-02T07:06:40.412Z,41.60
2023-02-02T07:09:08.635Z,35.90
2023-02-02T07:11:40.060Z,38.60
2023-02-02T07:14:14.802Z,30.20
2023-02-02T07:16:44.518Z,42.00
2023-02-02T07:19:12.894Z,35.00
2023-02-02T07:21:41.624Z,40.20
2023-02-02T07:24:09.915Z,37.10
2023-02-02T07:26:39.969Z,36.20
2023-02-02T07:29:09.031Z,36.90
2023-02-02T07:31:37.510Z,36.70
2023-02-02T07:34:05.990Z,39.60
2023-02-02T07:36:34.893Z,59.30
2023-02-02T07:39:05.079Z,45.60
2023-02-02T07:41:36.893Z,60.70
2023-02-02T07:44:05.263Z,82.00
2023-02-02T07:46:35.053Z,52.10
2023-02-02T07:49:04.425Z,41.40
2023-02-02T07:51:34.293Z,64.80
2023-02-02T07:54:02.877Z,57.30
2023-02-02T07:56:31.466Z,49.00
2023-02-02T07:59:03.586Z,50.60
2023-02-02T08:01:31.947Z,46.80
2023-02-02T08:04:03.756Z,42.00
2023-02-02T08:06:33.747Z,42.00
2023-02-02T08:09:02.295Z,40.20
2023-02-02T08:11:30.470Z,37.20
2023-02-02T08:13:59.434Z,38.50
2023-02-02T08:16:28.301Z,34.10
2023-02-02T08:18:57.628Z,33.20
2023-02-02T08:21:26.536Z,32.00
2023-02-02T08:23:55.405Z,30.10
2023-02-02T08:26:24.937Z,46.60
2023-02-02T08:28:54.591Z,31.30
2023-02-02T08:31:24.495Z,33.30
2023-02-02T08:33:54.722Z,34.60
2023-02-02T08:36:23.120Z,36.20
2023-02-02T08:38:54.083Z,33.10
2023-02-02T08:41:23.462Z,31.50
2023-02-02T08:43:51.797Z,32.60
2023-02-02T08:46:21.007Z,24.40
2023-02-02T08:48:50.053Z,29.00
2023-02-02T08:51:18.897Z,24.40
2023-02-02T08:53:47.797Z,23.10
2023-02-02T08:56:17.479Z,27.50
2023-02-02T08:58:46.341Z,25.60
2023-02-02T09:01:20.846Z,31.10
2023-02-02T09:03:49.147Z,29.50
2023-02-02T09:06:18.594Z,31.90
2023-02-02T09:08:46.939Z,27.60
2023-02-02T09:11:18.963Z,24.50
2023-02-02T09:13:48.949Z,24.00
2023-02-02T09:16:18.146Z,23.40
2023-02-02T09:18:46.767Z,25.60
2023-02-02T09:21:16.422Z,26.60
2023-02-02T09:23:45.050Z,22.20
2023-02-02T09:26:13.265Z,22.40
2023-02-02T09:28:42.043Z,21.50
2023-02-02T09:31:10.436Z,22.60
2023-02-02T09:33:39.452Z,23.60
2023-02-02T09:36:12.965Z,30.10
2023-02-02T09:38:41.564Z,22.80
2023-02-02T09:41:29.663Z,20.60
2023-02-02T09:44:13.192Z,21.10
2023-02-02T09:46:53.655Z,22.10
2023-02-02T09:49:26.501Z,28.80
2023-02-02T09:51:56.993Z,25.30
2023-02-02T09:54:35.027Z,22.00
2023-02-02T09:57:04.317Z,29.90
2023-02-02T09:59:34.936Z,27.70
2023-02-02T10:02:04.647Z,36.50
2023-02-02T10:04:34.927Z,39.40
2023-02-02T10:08:59.449Z,45.40
2023-02-02T10:11:30.837Z,32.70
2023-02-02T10:14:19.693Z,40.20
2023-02-02T10:16:48.448Z,38.20
2023-02-02T10:19:16.719Z,37.70
2023-02-02T10:22:04.835Z,26.20
2023-02-02T10:24:35.527Z,39.70
2023-02-02T10:27:05.792Z,29.10
2023-02-02T10:29:52.462Z,42.80
2023-02-02T10:32:24.602Z,65.20
2023-02-02T10:35:16.164Z,84.40
2023-02-02T10:38:03.776Z,54.90
2023-02-02T10:40:43.191Z,44.70
2023-02-02T10:43:47.823Z,38.40
2023-02-02T10:46:24.072Z,33.90
2023-02-02T10:48:56.893Z,26.40
2023-02-02T10:51:27.754Z,33.00
2023-02-02T10:53:57.741Z,34.80
2023-02-02T10:56:27.907Z,51.40
2023-02-02T10:59:08.532Z,35.30
2023-02-02T11:01:37.092Z,18.70
2023-02-02T11:04:25.566Z,23.00
2023-02-02T11:06:53.974Z,23.30
2023-02-02T11:09:28.661Z,21.30
2023-02-02T11:12:16.005Z,28.50
2023-02-02T11:14:46.252Z,34.10
2023-02-02T11:17:22.053Z,30.80
2023-02-02T11:19:53.417Z,31.00
2023-02-02T11:22:25.683Z,18.10
2023-02-02T11:24:54.246Z,29.40
2023-02-02T11:27:22.451Z,23.10
2023-02-02T11:29:53.985Z,21.60
2023-02-02T11:32:25.596Z,22.30
2023-02-02T11:35:03.065Z,23.20
2023-02-02T11:37:31.902Z,25.50
2023-02-02T11:40:19.984Z,20.70
2023-02-02T11:42:48.123Z,28.60
2023-02-02T11:45:21.155Z,32.70
2023-02-02T11:47:49.439Z,23.50
2023-02-02T11:50:23.749Z,21.00
2023-02-02T11:52:52.266Z,20.50
2023-02-02T11:55:28.139Z,24.00
2023-02-02T11:58:11.984Z,17.60
2023-02-02T12:00:50.608Z,15.40
2023-02-02T12:03:29.871Z,20.60
2023-02-02T12:05:58.132Z,18.20
2023-02-02T12:08:26.512Z,29.30
2023-02-02T12:11:01.574Z,42.70
2023-02-02T12:13:29.852Z,68.50
2023-02-02T12:16:11.482Z,78.50
2023-02-02T12:18:50.158Z,52.50
2023-02-02T12:21:22.258Z,32.30
2023-02-02T12:24:03.287Z,32.20
2023-02-02T12:26:32.084Z,21.50
2023-02-02T12:29:01.383Z,18.40
2023-02-02T12:31:45.176Z,15.70
2023-02-02T12:34:26.084Z,29.70
2023-02-02T12:37:10.140Z,26.70
2023-02-02T12:39:43.848Z,23.30
2023-02-02T12:42:12.157Z,50.40
2023-02-02T12:44:51.208Z,45.20
2023-02-02T12:47:25.788Z,85.10
2023-02-02T12:50:01.076Z,55.90
2023-02-02T12:52:35.893Z,42.80
2023-02-02T12:55:04.417Z,29.30
2023-02-02T12:57:33.423Z,47.80
2023-02-02T13:00:21.292Z,21.70
2023-02-02T13:02:56.240Z,16.50
2023-02-02T13:05:43.731Z,17.80
2023-02-02T13:08:16.816Z,16.70
2023-02-02T13:10:49.391Z,19.80
2023-02-02T13:13:19.939Z,17.20
2023-02-02T13:16:07.672Z,15.30
2023-02-02T13:18:39.065Z,14.10
2023-02-02T13:21:23.539Z,15.90
2023-02-02T13:23:57.684Z,17.20
2023-02-02T13:26:32.721Z,13.10
2023-02-02T13:29:03.365Z,11.80
2023-02-02T13:31:44.157Z,11.30
2023-02-02T13:34:31.421Z,12.90
2023-02-02T13:37:02.824Z,12.30
2023-02-02T13:39:35.067Z,11.60
2023-02-02T13:42:03.612Z,9.60
2023-02-02T13:44:34.565Z,8.90
2023-02-02T13:47:05.244Z,14.00
2023-02-02T13:49:35.435Z,11.30
2023-02-02T13:52:32.782Z,10.50
2023-02-02T13:55:19.932Z,11.00
2023-02-02T14:00:38.479Z,10.10
2023-02-02T14:03:22.423Z,18.00
2023-02-02T14:06:11.261Z,14.50
2023-02-02T14:09:00.120Z,15.00
2023-02-02T14:11:32.873Z,18.80
2023-02-02T14:14:20.065Z,15.90
2023-02-02T14:16:49.658Z,16.80
2023-02-02T14:19:17.996Z,17.60
2023-02-02T14:21:49.203Z,17.90
2023-02-02T14:24:46.736Z,17.30
2023-02-02T14:27:15.313Z,16.90
2023-02-02T14:29:46.357Z,18.70
2023-02-02T14:32:18.250Z,21.20
2023-02-02T14:34:46.680Z,16.40
2023-02-02T14:37:24.199Z,22.10
2023-02-02T14:39:58.435Z,41.00
2023-02-02T14:42:45.477Z,23.80
2023-02-02T14:45:21.987Z,18.70
2023-02-02T14:47:51.238Z,21.80
2023-02-02T14:50:23.985Z,24.20
2023-02-02T14:53:19.136Z,24.50
2023-02-02T14:55:57.808Z,26.40
2023-02-02T14:58:28.754Z,22.30
2023-02-02T15:01:16.755Z,25.80
2023-02-02T15:03:46.606Z,24.30
2023-02-02T15:06:34.442Z,20.90
2023-02-02T15:09:27.404Z,31.20
2023-02-02T15:12:05.014Z,25.50
2023-02-02T15:14:34.270Z,22.50
2023-02-02T15:17:12.959Z,22.60
2023-02-02T15:19:42.030Z,24.50
2023-02-02T15:22:18.759Z,22.30
2023-02-02T15:24:48.653Z,25.00
2023-02-02T15:27:16.869Z,25.60
2023-02-02T15:29:46.007Z,23.00
2023-02-02T15:32:15.506Z,24.10
2023-02-02T15:34:44.423Z,22.60
2023-02-02T15:37:14.673Z,18.00
2023-02-02T15:39:43.464Z,21.00
2023-02-02T15:42:40.482Z,20.70
2023-02-02T15:45:32.224Z,24.50
2023-02-02T15:48:02.326Z,17.90
2023-02-02T15:50:30.691Z,19.30
2023-02-02T15:52:59.804Z,19.60
2023-02-02T15:55:32.277Z,18.50
2023-02-02T15:58:00.987Z,22.80
2023-02-02T16:00:31.271Z,18.30
2023-02-02T16:02:59.994Z,19.10
2023-02-02T16:05:31.758Z,20.50
2023-02-02T16:08:07.862Z,14.70
2023-02-02T16:10:35.952Z,15.80
2023-02-02T16:13:04.888Z,19.30
2023-02-02T16:15:33.695Z,18.80
2023-02-02T16:18:04.934Z,17.50
2023-02-02T16:20:34.032Z,17.90
2023-02-02T16:23:05.595Z,21.00
2023-02-02T16:25:34.926Z,22.40
2023-02-02T16:28:03.628Z,24.70
2023-02-02T16:30:33.057Z,18.20
2023-02-02T16:33:21.333Z,21.90
2023-02-02T16:35:49.993Z,18.90
2023-02-02T16:38:18.057Z,21.40
2023-02-02T16:40:47.652Z,18.40
2023-02-02T16:43:19.788Z,18.10
2023-02-02T16:45:52.094Z,17.60
2023-02-02T16:48:26.386Z,20.10
2023-02-02T16:51:07.268Z,18.90
2023-02-02T16:53:35.774Z,16.00
2023-02-02T16:56:06.994Z,23.80
2023-02-02T16:58:37.839Z,20.40
2023-02-02T17:01:16.599Z,19.10
2023-02-02T17:03:53.858Z,19.50
2023-02-02T17:06:42.072Z,21.40
2023-02-02T17:09:24.959Z,19.90
2023-02-02T17:12:32.259Z,23.10
2023-02-02T17:15:05.946Z,26.60
2023-02-02T17:17:34.397Z,23.30
2023-02-02T17:20:04.376Z,17.20
2023-02-02T17:22:32.712Z,22.20
2023-02-02T17:25:01.069Z,23.10
2023-02-02T17:27:33.492Z,21.10
2023-02-02T17:30:02.431Z,28.00
2023-02-02T17:32:31.017Z,22.50
2023-02-02T17:34:59.136Z,24.00
2023-02-02T17:37:27.404Z,21.50
2023-02-02T17:39:57.296Z,23.20
2023-02-02T17:42:26.375Z,25.50
2023-02-02T17:44:54.478Z,20.30
2023-02-02T17:47:23.546Z,20.10
2023-02-02T17:49:52.095Z,22.10
2023-02-02T17:52:21.070Z,20.60
2023-02-02T17:54:49.356Z,20.80
2023-02-02T17:57:18.059Z,23.10
2023-02-02T17:59:46.601Z,25.30
2023-02-02T18:02:16.517Z,20.50
2023-02-02T18:04:45.774Z,22.50
2023-02-02T18:07:14.509Z,23.50
2023-02-02T18:09:42.844Z,22.80
2023-02-02T18:12:11.136Z,20.10
2023-02-02T18:14:40.162Z,18.80
2023-02-02T18:17:09.225Z,19.60
2023-02-02T18:19:39.352Z,21.50
2023-02-02T18:22:07.974Z,23.70
2023-02-02T18:24:36.565Z,20.50
2023-02-02T18:27:04.747Z,20.30
2023-02-02T18:29:33.341Z,18.70
2023-02-02T18:32:01.654Z,20.30
2023-02-02T18:34:33.984Z,24.60
2023-02-02T18:37:02.891Z,23.10
2023-02-02T18:39:31.273Z,20.80
2023-02-02T18:42:01.038Z,21.60
2023-02-02T18:44:29.666Z,20.90
2023-02-02T18:46:57.938Z,18.30
2023-02-02T18:49:26.432Z,20.40
2023-02-02T18:51:55.010Z,20.80
2023-02-02T18:54:23.622Z,22.50
2023-02-02T18:56:51.908Z,18.30
2023-02-02T18:59:20.448Z,23.70
2023-02-02T19:01:48.906Z,22.60
2023-02-02T19:04:17.817Z,22.50
2023-02-02T19:07:05.271Z,22.50
2023-02-02T19:09:33.990Z,21.60
2023-02-02T19:12:04.231Z,21.50
2023-02-02T19:14:34.675Z,19.60
2023-02-02T19:17:09.506Z,18.30
2023-02-02T19:19:40.227Z,17.80
2023-02-02T19:22:26.918Z,21.80
2023-02-02T19:24:55.310Z,16.80
2023-02-02T19:27:24.488Z,16.40
2023-02-02T19:29:59.951Z,21.90
2023-02-02T19:32:31.093Z,16.00
2023-02-02T19:35:01.677Z,19.30
2023-02-02T19:37:31.630Z,18.10
2023-02-02T19:40:14.537Z,19.70
2023-02-02T19:43:06.611Z,14.80
2023-02-02T19:45:35.939Z,16.70
2023-02-02T19:48:27.841Z,15.60
2023-02-02T19:50:56.190Z,17.30
2023-02-02T19:53:28.498Z,20.20
2023-02-02T19:55:56.956Z,24.40
2023-02-02T19:58:29.106Z,22.10
2023-02-02T20:00:58.146Z,21.40
2023-02-02T20:03:26.911Z,27.80
2023-02-02T20:05:57.393Z,26.70
2023-02-02T20:08:35.803Z,19.80
2023-02-02T20:11:32.420Z,22.70
2023-02-02T20:14:02.121Z,21.80
2023-02-02T20:16:37.874Z,18.30
2023-02-02T20:19:09.401Z,23.80
2023-02-02T20:21:48.831Z,16.50
2023-02-02T20:24:18.251Z,19.20
2023-02-02T20:26:46.556Z,17.80
2023-02-02T20:29:15.075Z,19.10
2023-02-02T20:31:43.938Z,15.30
2023-02-02T20:34:21.659Z,14.20
2023-02-02T20:36:50.168Z,10.40
2023-02-02T20:39:26.867Z,12.40
2023-02-02T20:41:57.353Z,14.20
2023-02-02T20:44:26.355Z,14.00
2023-02-02T20:46:55.604Z,14.50
2023-02-02T20:49:26.895Z,13.80
2023-02-02T20:51:56.051Z,13.90
2023-02-02T20:54:24.421Z,34.30
2023-02-02T20:56:52.844Z,19.70
2023-02-02T20:59:21.351Z,56.70
2023-02-02T21:01:53.245Z,20.60
2023-02-02T21:04:21.836Z,16.80
2023-02-02T21:06:50.192Z,11.40
2023-02-02T21:09:18.307Z,12.30
2023-02-02T21:11:46.555Z,9.50
2023-02-02T21:14:14.991Z,15.90
2023-02-02T21:16:43.475Z,9.90
2023-02-02T21:19:12.509Z,11.70
2023-02-02T21:21:40.633Z,9.50
2023-02-02T21:24:09.338Z,11.30
2023-02-02T21:26:37.768Z,10.90
2023-02-02T21:29:06.214Z,13.10
2023-02-02T21:31:37.662Z,11.70
2023-02-02T21:34:06.365Z,18.60
2023-02-02T21:36:36.080Z,17.50
2023-02-02T21:39:25.117Z,13.80
2023-02-02T21:42:13.682Z,10.50
2023-02-02T21:44:43.913Z,17.60
2023-02-02T21:47:30.655Z,14.50
2023-02-02T21:50:01.337Z,16.80
2023-02-02T21:52:32.475Z,19.90
2023-02-02T21:55:35.612Z,13.10
2023-02-02T21:58:23.021Z,20.40
2023-02-02T22:00:57.657Z,11.90
2023-02-02T22:03:30.340Z,12.00
2023-02-02T22:06:04.857Z,12.80
2023-02-02T22:08:35.288Z,14.80
2023-02-02T22:11:03.916Z,16.20
2023-02-02T22:13:35.852Z,13.40
2023-02-02T22:16:11.877Z,16.80
2023-02-02T22:18:40.186Z,18.50
2023-02-02T22:21:08.527Z,15.40
2023-02-02T22:23:37.180Z,17.20
2023-02-02T22:27:36.346Z,13.60
2023-02-02T22:30:11.215Z,15.60
2023-02-02T22:32:39.472Z,17.60
2023-02-02T22:35:07.855Z,18.90
2023-02-02T22:37:36.861Z,33.70
2023-02-02T22:40:05.700Z,29.60
2023-02-02T22:42:34.376Z,35.30
2023-02-02T22:45:02.589Z,22.80
2023-02-02T22:47:31.836Z,31.40
2023-02-02T22:49:59.955Z,19.70
2023-02-02T22:52:28.584Z,14.00
2023-02-02T22:54:56.855Z,13.00
2023-02-02T22:57:28.183Z,16.90
2023-02-02T22:59:57.135Z,8.50
2023-02-02T23:02:25.582Z,10.60
2023-02-02T23:04:53.693Z,11.50
2023-02-02T23:07:22.280Z,9.50
2023-02-02T23:09:50.455Z,9.90
2023-02-02T23:12:20.371Z,11.90
2023-02-02T23:14:48.962Z,9.00
2023-02-02T23:17:17.142Z,9.50
2023-02-02T23:19:45.906Z,8.20
2023-02-02T23:22:14.157Z,10.00
2023-02-02T23:24:42.364Z,10.00
2023-02-02T23:27:13.513Z,11.70
2023-02-02T23:29:41.847Z,12.00
2023-02-02T23:32:10.290Z,9.40
2023-02-02T23:34:39.467Z,10.30
2023-02-02T23:37:08.063Z,9.30
2023-02-02T23:39:36.190Z,12.40
2023-02-02T23:42:04.337Z,8.80
2023-02-02T23:44:32.579Z,12.80
2023-02-02T23:47:01.647Z,12.60
2023-02-02T23:49:30.960Z,14.20
2023-02-02T23:51:59.680Z,14.40
2023-02-02T23:54:28.039Z,10.50
2023-02-02T23:56:56.305Z,9.20
2023-02-02T23:59:24.461Z,14.30
